Time;durP1;ratioP1;P1;durP2;ratioP2;P2;SDS_P1;SDS_P2;PMS_P1;PMS_P2;Temp;Humidity;BMP_temperature;BMP_pressure;BME280_temperature;BME280_humidity;BME280_pressure;Samples;Min_cycle;Max_cycle;Signal;HPM_P1;HPM_P2
2022/01/22 00:00:21;;;;;;;20.75;9.85;;;;;;;2.96;100.00;103397.25;5030581;28;20409;-84
2022/01/22 00:02:48;;;;;;;21.98;10.65;;;;;;;2.97;100.00;103387.81;5032040;28;20528;-83
2022/01/22 00:05:14;;;;;;;21.02;9.82;;;;;;;2.98;100.00;103394.75;5031162;28;20073;-84
2022/01/22 00:07:39;;;;;;;19.50;10.07;;;;;;;2.96;100.00;103396.38;5030515;28;20022;-83
2022/01/22 00:10:12;;;;;;;21.70;10.90;;;;;;;2.97;100.00;103391.28;5031027;28;20037;-83
2022/01/22 00:15:04;;;;;;;16.90;9.30;;;;;;;2.97;100.00;103377.50;5046430;28;20029;-83
2022/01/22 00:17:30;;;;;;;16.88;9.05;;;;;;;2.98;100.00;103380.16;5051551;28;20070;-83
2022/01/22 00:19:55;;;;;;;18.52;9.07;;;;;;;2.99;100.00;103387.09;5054137;28;20033;-84
2022/01/22 00:22:25;;;;;;;17.92;9.65;;;;;;;2.93;100.00;103370.44;5055110;28;20380;-83
2022/01/22 00:24:54;;;;;;;19.73;9.52;;;;;;;2.96;100.00;103375.75;5040995;28;20029;-83
2022/01/22 00:27:20;;;;;;;15.75;9.40;;;;;;;2.98;100.00;103380.16;5034182;28;20112;-83
2022/01/22 00:29:45;;;;;;;16.27;9.02;;;;;;;2.97;100.00;103377.50;5034339;28;20469;-83
2022/01/22 00:32:10;;;;;;;13.48;9.43;;;;;;;2.98;100.00;103385.31;5034596;28;20026;-83
2022/01/22 00:34:37;;;;;;;14.75;8.70;;;;;;;2.96;100.00;103365.44;5033708;28;20083;-83
2022/01/22 00:37:02;;;;;;;21.27;9.30;;;;;;;2.95;100.00;103367.13;5035397;28;20549;-84
2022/01/22 00:39:28;;;;;;;14.98;9.52;;;;;;;2.98;100.00;103364.72;5034389;28;20022;-83
2022/01/22 00:41:53;;;;;;;17.33;10.68;;;;;;;3.00;100.00;103364.78;5033443;28;20040;-83
2022/01/22 00:44:18;;;;;;;13.77;9.15;;;;;;;2.96;100.00;103355.13;5034520;28;20021;-83
2022/01/22 00:46:43;;;;;;;20.75;9.55;;;;;;;3.00;100.00;103368.22;5034938;28;20029;-83
2022/01/22 00:49:09;;;;;;;17.38;10.43;;;;;;;2.96;100.00;103356.00;5036891;28;20040;-83
2022/01/22 00:51:34;;;;;;;25.00;10.15;;;;;;;2.98;100.00;103362.13;5034336;28;20071;-83
2022/01/22 00:54:01;;;;;;;19.13;9.65;;;;;;;3.00;100.00;103359.63;5038102;28;20586;-83
2022/01/22 00:56:26;;;;;;;19.60;10.27;;;;;;;3.02;100.00;103368.31;5042305;28;20033;-83
2022/01/22 00:58:51;;;;;;;22.48;10.77;;;;;;;3.02;100.00;103361.47;5034931;28;20037;-83
2022/01/22 01:01:17;;;;;;;20.20;10.57;;;;;;;3.01;100.00;103370.00;5034168;28;20420;-83
2022/01/22 01:03:42;;;;;;;21.20;10.95;;;;;;;3.02;100.00;103376.03;5033466;28;20037;-83
2022/01/22 01:06:07;;;;;;;19.83;11.20;;;;;;;3.00;100.00;103378.53;5033984;28;20167;-83
2022/01/22 01:08:34;;;;;;;20.38;10.70;;;;;;;3.02;100.00;103376.03;5048949;28;20503;-84
2022/01/22 01:11:01;;;;;;;25.85;11.18;;;;;;;2.98;100.00;103374.13;5052967;28;20032;-84
2022/01/22 01:13:29;;;;;;;20.63;11.45;;;;;;;3.07;100.00;103379.72;5053632;28;20108;-83
2022/01/22 01:16:00;;;;;;;20.52;10.23;;;;;;;3.05;100.00;103374.50;5041178;28;20389;-83
2022/01/22 01:34:41;;;;;;;21.13;11.55;;;;;;;3.13;100.00;103372.28;5037823;28;19917;-83
2022/01/22 01:37:07;;;;;;;20.90;12.35;;;;;;;3.13;100.00;103374.84;5032694;28;20030;-83
2022/01/22 01:39:34;;;;;;;23.02;12.93;;;;;;;3.12;100.00;103372.22;5043138;28;20384;-83
2022/01/22 01:42:05;;;;;;;21.67;12.02;;;;;;;3.12;100.00;103377.38;5038903;28;20032;-83
2022/01/22 01:44:30;;;;;;;24.67;12.68;;;;;;;3.11;100.00;103373.03;5032506;28;20071;-83
2022/01/22 01:46:59;;;;;;;21.80;11.98;;;;;;;3.11;100.00;103379.06;5052058;28;20025;-83
2022/01/22 01:49:26;;;;;;;29.30;12.40;;;;;;;3.10;100.00;103378.97;5053168;28;20017;-84
2022/01/22 01:51:54;;;;;;;26.55;13.20;;;;;;;3.08;100.00;103384.06;5052384;28;20461;-83
2022/01/22 01:54:33;;;;;;;23.02;13.50;;;;;;;3.02;100.00;103374.34;5033938;28;20091;-83
2022/01/22 01:59:47;;;;;;;27.95;14.52;;;;;;;2.89;100.00;103364.25;5033505;28;20107;-83
2022/01/22 02:02:13;;;;;;;24.92;14.60;;;;;;;2.93;100.00;103376.47;5032840;28;20112;-83
2022/01/22 02:04:39;;;;;;;28.38;13.82;;;;;;;2.92;100.00;103363.53;5038977;28;20028;-83
2022/01/22 02:07:06;;;;;;;31.80;15.18;;;;;;;2.93;100.00;103371.31;5051566;28;20028;-84
2022/01/22 02:09:33;;;;;;;25.13;14.23;;;;;;;2.90;100.00;103362.56;5035671;28;20485;-83
2022/01/22 02:12:04;;;;;;;24.45;13.57;;;;;;;2.95;100.00;103376.56;5041546;28;20040;-83
2022/01/22 02:25:17;;;;;;;31.42;15.98;;;;;;;2.98;100.00;103374.13;5032884;28;20076;-83
2022/01/22 02:27:42;;;;;;;33.63;18.33;;;;;;;2.99;100.00;103363.88;5031622;28;20045;-83
2022/01/22 02:30:08;;;;;;;29.73;17.20;;;;;;;2.99;100.00;103361.31;5032432;28;20530;-83
2022/01/22 02:35:14;;;;;;;35.33;18.83;;;;;;;3.00;100.00;103355.34;5031649;28;20033;-83
2022/01/22 02:37:45;;;;;;;33.65;18.27;;;;;;;3.01;100.00;103367.44;5032286;28;20029;-83
2022/01/22 02:40:17;;;;;;;35.15;19.70;;;;;;;2.96;100.00;103366.31;5050692;28;20032;-83
2022/01/22 02:42:46;;;;;;;35.05;18.77;;;;;;;2.96;100.00;103366.31;5052039;28;20499;-83
2022/01/22 02:45:17;;;;;;;38.53;20.30;;;;;;;2.95;100.00;103364.56;5051759;28;20215;-83
2022/01/22 02:47:42;;;;;;;42.05;20.83;;;;;;;2.91;100.00;103365.22;5038841;28;20036;-84
2022/01/22 02:50:08;;;;;;;35.80;20.48;;;;;;;2.95;100.00;103374.00;5048950;28;20025;-83
2022/01/22 02:52:33;;;;;;;43.08;21.98;;;;;;;2.96;100.00;103383.47;5032045;28;20034;-83
2022/01/22 02:55:00;;;;;;;39.85;22.02;;;;;;;2.94;100.00;103383.41;5031203;28;20381;-83
2022/01/22 02:57:26;;;;;;;41.10;22.63;;;;;;;2.89;100.00;103368.53;5031796;28;20075;-83
2022/01/22 02:59:51;;;;;;;37.28;21.63;;;;;;;2.92;100.00;103374.72;5048273;28;20435;-84
2022/01/22 03:02:16;;;;;;;42.72;22.50;;;;;;;2.96;100.00;103381.78;5049263;28;20021;-83
2022/01/22 03:04:42;;;;;;;43.13;23.23;;;;;;;2.95;100.00;103381.72;5051703;28;20112;-83
2022/01/22 03:07:07;;;;;;;45.47;22.33;;;;;;;2.94;100.00;103373.13;5039044;28;20033;-83
2022/01/22 03:09:40;;;;;;;39.88;22.63;;;;;;;2.92;100.00;103377.28;5044513;28;20358;-83
2022/01/22 03:27:32;;;;;;;45.70;24.75;;;;;;;2.99;100.00;103375.91;5050341;28;20041;-83
2022/01/22 03:29:58;;;;;;;51.95;24.75;;;;;;;2.99;100.00;103376.78;5049953;28;20041;-83
2022/01/22 03:32:31;;;;;;;48.40;24.90;;;;;;;3.00;100.00;103377.66;5049559;28;20018;-83
2022/01/22 03:35:09;;;;;;;51.83;26.33;;;;;;;2.99;100.00;103375.91;5051331;28;20147;-83
2022/01/22 03:37:36;;;;;;;45.00;26.33;;;;;;;3.01;100.00;103376.88;5034147;28;20033;-84
2022/01/22 03:40:03;;;;;;;54.33;26.45;;;;;;;2.98;100.00;103369.88;5031185;28;20075;-83
2022/01/22 03:42:28;;;;;;;49.28;25.67;;;;;;;3.02;100.00;103371.78;5035613;28;20032;-83
2022/01/22 03:44:54;;;;;;;51.05;27.50;;;;;;;3.04;100.00;103387.28;5050398;28;20484;-83
2022/01/22 03:47:19;;;;;;;51.58;28.27;;;;;;;3.02;100.00;103382.09;5051625;28;20024;-83
2022/01/22 03:49:44;;;;;;;54.63;26.38;;;;;;;3.05;100.00;103383.94;5043185;28;20481;-83
2022/01/22 03:52:10;;;;;;;50.88;28.55;;;;;;;3.04;100.00;103384.72;5034805;28;20029;-84
2022/01/22 03:54:36;;;;;;;56.45;29.38;;;;;;;3.06;100.00;103377.94;5055385;28;20476;-83
2022/01/22 03:57:02;;;;;;;54.83;29.75;;;;;;;3.07;100.00;103371.97;5055114;28;20052;-83
2022/01/22 03:59:29;;;;;;;55.35;30.85;;;;;;;3.10;100.00;103376.41;5054118;28;20092;-83
2022/01/22 04:04:28;;;;;;;61.22;32.25;;;;;;;3.11;100.00;103376.50;5053068;28;20531;-83
2022/01/22 04:09:20;;;;;;;61.05;31.63;;;;;;;3.11;100.00;103366.19;5053079;28;20100;-83
2022/01/22 04:11:47;;;;;;;70.55;32.60;;;;;;;3.14;100.00;103368.91;5035170;28;20024;-84
2022/01/22 04:14:23;;;;;;;64.28;32.90;;;;;;;3.16;100.00;103374.13;5041596;28;20466;-83
2022/01/22 04:17:08;;;;;;;59.30;32.60;;;;;;;3.14;100.00;103368.91;5054789;28;20052;-83
2022/01/22 04:25:10;;;;;;;62.63;32.50;;;;;;;3.23;100.00;103365.84;5053546;28;20040;-83
2022/01/22 04:27:36;;;;;;;61.78;32.53;;;;;;;3.22;100.00;103367.56;5053795;28;20021;-83
2022/01/22 04:30:02;;;;;;;62.08;32.40;;;;;;;3.24;100.00;103365.94;5047410;28;20042;-83
2022/01/22 04:32:30;;;;;;;60.33;32.35;;;;;;;3.18;100.00;103357.94;5045634;28;20104;-83
2022/01/22 04:34:56;;;;;;;72.00;34.95;;;;;;;3.24;100.00;103375.38;5053585;28;20480;-83
2022/01/22 04:37:24;;;;;;;65.88;33.17;;;;;;;3.23;100.00;103360.69;5054674;28;20500;-83
2022/01/22 04:39:50;;;;;;;68.30;32.67;;;;;;;3.23;100.00;103365.84;5053759;28;20032;-83
2022/01/22 04:42:16;;;;;;;69.82;33.15;;;;;;;3.23;100.00;103366.75;5045011;28;20032;-83
2022/01/22 04:44:58;;;;;;;75.25;36.42;;;;;;;3.23;100.00;103366.75;5034527;28;20022;-84
2022/01/22 04:52:42;;;;;;;68.40;32.88;;;;;;;3.29;100.00;103373.88;5044518;28;20031;-83
2022/01/22 04:55:08;;;;;;;66.53;33.85;;;;;;;3.30;100.00;103373.06;5053125;28;20036;-83
2022/01/22 04:57:37;;;;;;;78.90;35.25;;;;;;;3.31;100.00;103379.13;5049815;28;20036;-83
2022/01/22 05:00:06;;;;;;;67.35;35.00;;;;;;;3.33;100.00;103368.06;5034037;28;20029;-83
2022/01/22 05:02:31;;;;;;;68.32;32.45;;;;;;;3.35;100.00;103373.31;5033654;28;20061;-83
2022/01/22 05:04:56;;;;;;;69.47;34.58;;;;;;;3.33;100.00;103365.47;5033738;28;20560;-83
2022/01/22 05:07:22;;;;;;;71.03;34.28;;;;;;;3.37;100.00;103362.25;5034350;28;20040;-83
2022/01/22 05:09:47;;;;;;;65.53;34.00;;;;;;;3.37;100.00;103371.66;5033145;28;20102;-84
2022/01/22 05:12:12;;;;;;;74.07;34.60;;;;;;;3.39;100.00;103363.19;5044708;28;20432;-83
2022/01/22 05:14:38;;;;;;;66.75;33.00;;;;;;;3.40;100.00;103369.22;5033933;28;20493;-83
2022/01/22 05:17:06;;;;;;;72.22;35.17;;;;;;;3.41;100.00;103366.72;5032801;28;20432;-83
2022/01/22 05:19:43;;;;;;;68.57;33.85;;;;;;;3.42;100.00;103365.03;5033662;28;20057;-83
2022/01/22 05:22:23;;;;;;;70.43;34.72;;;;;;;3.43;100.00;103364.22;5039427;28;20027;-83
2022/01/22 05:24:53;;;;;;;65.90;33.55;;;;;;;3.44;100.00;103372.03;5053634;28;20032;-83
2022/01/22 05:27:35;;;;;;;72.38;33.13;;;;;;;3.45;100.00;103360.91;5051535;28;20021;-83
2022/01/22 05:30:37;;;;;;;68.82;33.10;;;;;;;3.46;100.00;103359.19;5032406;28;20048;-83
2022/01/22 05:33:15;;;;;;;70.50;33.08;;;;;;;3.44;100.00;103351.41;5034324;28;20045;-83
2022/01/22 05:38:27;;;;;;;66.15;32.00;;;;;;;3.48;100.00;103353.31;5033539;28;20037;-83
2022/01/22 05:40:52;;;;;;;65.43;32.17;;;;;;;3.45;100.00;103358.31;5033421;28;20093;-83
2022/01/22 05:43:17;;;;;;;69.10;33.63;;;;;;;3.49;100.00;103360.22;5048458;28;20033;-82
2022/01/22 05:45:42;;;;;;;66.68;34.00;;;;;;;3.50;100.00;103363.72;5051153;28;20062;-83
2022/01/22 05:48:08;;;;;;;72.40;31.15;;;;;;;3.50;100.00;103364.59;5052923;28;20461;-83
2022/01/22 05:50:54;;;;;;;73.88;31.63;;;;;;;3.52;100.00;103362.06;5052327;28;20054;-83
2022/01/22 05:59:36;;;;;;;68.93;32.88;;;;;;;3.49;100.00;103365.38;5039388;28;20041;-83
2022/01/22 06:01:20;;;;;;;62.30;32.20;;;;;;;3.52;100.00;103372.38;5050252;28;20164;-83
2022/01/22 06:03:46;;;;;;;65.93;31.30;;;;;;;3.54;100.00;103370.75;5033120;28;20033;-83
2022/01/22 06:06:13;;;;;;;66.38;32.30;;;;;;;3.52;100.00;103373.25;5032142;28;20112;-83
2022/01/22 06:08:52;;;;;;;64.40;31.92;;;;;;;3.55;100.00;103382.84;5032927;28;20109;-83
2022/01/22 06:11:23;;;;;;;66.07;32.17;;;;;;;3.55;100.00;103371.63;5033176;28;20025;-83
2022/01/22 06:13:49;;;;;;;66.50;31.20;;;;;;;3.55;100.00;103377.69;5052006;28;20025;-83
2022/01/22 06:16:18;;;;;;;67.53;31.58;;;;;;;3.58;100.00;103376.94;5052647;28;20033;-83
2022/01/22 06:18:43;;;;;;;67.43;31.48;;;;;;;3.59;100.00;103376.13;5051695;28;20032;-83
2022/01/22 06:21:09;;;;;;;66.47;31.38;;;;;;;3.60;100.00;103378.78;5051013;28;20060;-83
2022/01/22 06:23:36;;;;;;;65.97;30.80;;;;;;;3.60;100.00;103372.75;5032475;28;20033;-83
2022/01/22 06:26:03;;;;;;;62.85;29.42;;;;;;;3.59;100.00;103370.97;5032461;28;20464;-83
2022/01/22 06:28:30;;;;;;;61.03;30.63;;;;;;;3.57;100.00;103375.19;5032363;28;20046;-83
2022/01/22 06:30:56;;;;;;;60.83;30.58;;;;;;;3.52;100.00;103368.09;5032356;28;20021;-83
2022/01/22 06:33:22;;;;;;;62.80;31.20;;;;;;;3.51;100.00;103363.75;5050353;28;20091;-83
2022/01/22 06:35:47;;;;;;;65.68;31.65;;;;;;;3.54;100.00;103368.19;5051969;28;20029;-83
2022/01/22 06:38:13;;;;;;;63.42;31.55;;;;;;;3.56;100.00;103383.72;5051892;28;20130;-83
2022/01/22 06:43:04;;;;;;;65.82;30.77;;;;;;;3.56;100.00;103388.88;5041404;28;20068;-83
2022/01/22 06:45:30;;;;;;;75.43;31.13;;;;;;;3.57;100.00;103388.09;5052207;28;20393;-83
2022/01/22 06:47:56;;;;;;;59.50;30.10;;;;;;;3.55;100.00;103379.38;5051034;28;20071;-83
2022/01/22 06:50:22;;;;;;;60.80;30.50;;;;;;;3.57;100.00;103388.97;5052261;28;20040;-83
2022/01/22 06:52:55;;;;;;;65.15;29.77;;;;;;;3.58;100.00;103395.00;5034376;28;20029;-83
2022/01/22 06:55:27;;;;;;;57.00;28.63;;;;;;;3.60;100.00;103395.97;5031445;28;20080;-83
2022/01/22 06:57:52;;;;;;;58.78;28.08;;;;;;;3.61;100.00;103396.00;5032043;28;20346;-83
2022/01/22 07:00:18;;;;;;;57.97;27.17;;;;;;;3.63;100.00;103399.56;5033147;28;20025;-83
2022/01/22 07:02:43;;;;;;;60.83;27.60;;;;;;;3.62;100.00;103396.91;5030983;28;20038;-83
2022/01/22 07:05:08;;;;;;;63.63;27.92;;;;;;;3.63;100.00;103394.41;5031596;28;20030;-83
2022/01/22 07:07:35;;;;;;;62.65;27.40;;;;;;;3.69;100.00;103401.53;5031988;28;20397;-83
2022/01/22 07:10:00;;;;;;;58.53;27.65;;;;;;;3.69;100.00;103394.66;5031819;28;20108;-83
2022/01/22 07:12:25;;;;;;;54.72;26.77;;;;;;;3.70;100.00;103406.75;5049050;28;20072;-83
2022/01/22 07:14:51;;;;;;;60.50;26.27;;;;;;;3.69;100.00;103404.97;5047940;28;20026;-83
2022/01/22 07:17:17;;;;;;;54.28;27.23;;;;;;;3.64;100.00;103401.31;5051547;28;20033;-83
2022/01/22 07:19:43;;;;;;;54.10;26.60;;;;;;;3.69;100.00;103415.28;5041780;28;20021;-83
2022/01/22 07:22:30;;;;;;;53.97;26.17;;;;;;;3.70;100.00;103427.41;5030674;28;20465;-83
2022/01/22 07:24:53;;;;;;;55.78;25.70;;;;;;;3.72;100.00;103435.19;5031219;28;20094;-83
2022/01/22 07:27:19;;;;;;;63.60;27.02;;;;;;;3.75;100.00;103432.75;5031863;28;20104;-83
2022/01/22 07:29:44;;;;;;;60.95;26.55;;;;;;;3.76;100.00;103431.97;5030690;28;20497;-83
2022/01/22 07:32:14;;;;;;;58.63;26.35;;;;;;;3.77;100.00;103433.72;5031353;28;20022;-83
2022/01/22 07:34:40;;;;;;;60.67;27.50;;;;;;;3.78;100.00;103427.75;5045619;28;20393;-83
2022/01/22 07:37:05;;;;;;;57.22;27.88;;;;;;;3.81;100.00;103442.50;5030381;28;20033;-83
2022/01/22 07:39:30;;;;;;;57.15;26.73;;;;;;;3.80;100.00;103435.56;5031403;28;20032;-83
2022/01/22 07:41:55;;;;;;;64.72;28.88;;;;;;;3.81;100.00;103433.06;5031231;28;20021;-83
2022/01/22 07:44:21;;;;;;;59.10;27.23;;;;;;;3.83;100.00;103443.47;5031916;28;20112;-83
2022/01/22 07:46:46;;;;;;;61.85;27.27;;;;;;;3.84;100.00;103445.22;5037558;28;20044;-83
2022/01/22 07:49:11;;;;;;;63.15;28.05;;;;;;;3.85;100.00;103442.69;5040577;28;20107;-83
2022/01/22 07:51:36;;;;;;;56.90;26.70;;;;;;;3.86;100.00;103433.25;5037029;28;20037;-83
2022/01/22 07:54:02;;;;;;;59.17;27.00;;;;;;;3.84;100.00;103440.94;5051400;28;20087;-84
2022/01/22 07:56:27;;;;;;;56.53;26.08;;;;;;;3.88;100.00;103441.97;5048082;28;20040;-83
2022/01/22 07:58:53;;;;;;;53.40;25.73;;;;;;;3.93;100.00;103441.34;5034862;28;20407;-84
2022/01/22 08:01:18;;;;;;;54.17;25.20;;;;;;;3.94;100.00;103434.50;5051429;28;20021;-83
2022/01/22 08:03:44;;;;;;;53.75;26.67;;;;;;;3.96;100.00;103435.47;5048649;28;20074;-83
2022/01/22 08:06:09;;;;;;;52.83;26.25;;;;;;;3.95;100.00;103442.28;5050534;28;20025;-84
2022/01/22 08:08:34;;;;;;;53.90;26.38;;;;;;;3.95;100.00;103434.56;5051337;28;20029;-84
2022/01/22 08:11:00;;;;;;;60.00;26.15;;;;;;;3.99;100.00;103441.63;5050335;28;20021;-83
2022/01/22 08:13:26;;;;;;;62.38;27.63;;;;;;;3.97;100.00;103424.31;5051114;28;20067;-84
2022/01/22 08:15:51;;;;;;;56.95;28.08;;;;;;;4.03;100.00;103434.91;5035641;28;20060;-83
2022/01/22 08:18:16;;;;;;;61.28;26.45;;;;;;;4.04;100.00;103428.06;5030471;28;20026;-83
2022/01/22 08:20:42;;;;;;;54.67;26.95;;;;;;;4.00;100.00;103419.28;5031058;28;20036;-83
2022/01/22 08:23:07;;;;;;;60.92;26.42;;;;;;;4.10;100.00;103430.91;5030811;28;20105;-83
2022/01/22 08:25:33;;;;;;;53.58;25.95;;;;;;;4.09;100.00;103431.72;5031192;28;20029;-83
2022/01/22 08:30:27;;;;;;;51.72;24.73;;;;;;;4.16;100.00;103433.78;5031152;28;20046;-83
2022/01/22 08:33:08;;;;;;;53.70;25.30;;;;;;;4.18;100.00;103432.13;5042085;28;20067;-83
2022/01/22 08:35:53;;;;;;;51.70;26.35;;;;;;;4.23;100.00;103438.38;5048985;28;20469;-83
2022/01/22 08:38:25;;;;;;;48.63;25.77;;;;;;;4.26;100.00;103440.22;5053744;28;20024;-83
2022/01/22 08:40:51;;;;;;;46.70;24.70;;;;;;;4.27;100.00;103431.66;5053859;28;20060;-83
2022/01/22 08:43:17;;;;;;;50.67;24.52;;;;;;;4.27;100.00;103432.53;5054419;28;20032;-84
2022/01/22 08:45:43;;;;;;;55.83;24.95;;;;;;;4.29;100.00;103430.91;5048668;28;20469;-83
2022/01/22 08:48:08;;;;;;;49.22;24.60;;;;;;;4.33;100.00;103430.22;5041455;28;20035;-83
2022/01/22 08:50:34;;;;;;;46.92;24.58;;;;;;;4.37;100.00;103436.41;5054394;28;20017;-83
2022/01/22 08:53:00;;;;;;;51.22;23.90;;;;;;;4.40;100.00;103431.38;5044097;28;20021;-83
2022/01/22 08:55:25;;;;;;;50.63;23.92;;;;;;;4.47;100.00;103442.00;5049809;28;20060;-82
2022/01/22 08:57:51;;;;;;;46.95;24.65;;;;;;;4.52;100.00;103441.34;5053866;28;20078;-84
2022/01/22 09:00:19;;;;;;;48.78;26.05;;;;;;;4.53;100.00;103451.75;5048824;28;20798;-83
2022/01/22 09:02:46;;;;;;;45.88;23.85;;;;;;;4.55;100.00;103450.13;5046019;28;20040;-84
2022/01/22 09:05:15;;;;;;;47.13;23.40;;;;;;;4.58;100.00;103459.72;5052147;28;20033;-85
2022/01/22 09:07:40;;;;;;;49.67;22.05;;;;;;;4.59;100.00;103457.19;5052986;28;20051;-85
2022/01/22 09:10:06;;;;;;;44.35;22.27;;;;;;;4.61;100.00;103460.72;5053640;28;20029;-85
2022/01/22 09:12:31;;;;;;;44.47;22.85;;;;;;;4.66;100.00;103463.50;5051291;28;20017;-85
2022/01/22 09:14:56;;;;;;;43.33;22.48;;;;;;;4.70;100.00;103470.53;5046533;28;20087;-84
2022/01/22 09:17:23;;;;;;;39.95;22.48;;;;;;;4.74;100.00;103467.31;5034145;28;20055;-85
2022/01/22 09:19:48;;;;;;;48.53;22.50;;;;;;;4.72;100.00;103471.50;5044196;28;20553;-84
2022/01/22 09:22:14;;;;;;;47.40;22.80;;;;;;;4.77;100.00;103482.91;5052005;28;20029;-84
2022/01/22 09:24:40;;;;;;;41.97;22.27;;;;;;;4.77;100.00;103477.72;5050094;28;20033;-85
2022/01/22 09:27:06;;;;;;;39.08;21.65;;;;;;;4.78;100.00;103479.53;5033392;28;20041;-84
2022/01/22 09:29:36;;;;;;;41.40;22.17;;;;;;;4.78;100.00;103474.34;5034143;28;20497;-85
2022/01/22 09:32:03;;;;;;;40.20;23.35;;;;;;;4.79;100.00;103467.47;5051674;28;20050;-84
2022/01/22 09:34:28;;;;;;;41.40;22.63;;;;;;;4.83;100.00;103467.66;5042173;28;20101;-85
2022/01/22 09:36:53;;;;;;;43.05;22.20;;;;;;;4.85;100.00;103472.91;5070798;28;20135;-85
2022/01/22 09:39:19;;;;;;;40.40;21.52;;;;;;;4.89;100.00;103472.22;5073559;28;20078;-84
2022/01/22 09:41:44;;;;;;;42.63;22.17;;;;;;;4.89;100.00;103467.03;5073266;28;20093;-84
2022/01/22 09:44:10;;;;;;;41.47;22.17;;;;;;;4.88;100.00;103481.69;5068162;28;20102;-84
2022/01/22 09:46:36;;;;;;;39.90;19.70;;;;;;;4.93;100.00;103490.50;5051421;28;20025;-84
2022/01/22 09:49:02;;;;;;;39.20;22.13;;;;;;;4.97;100.00;103498.38;5052214;28;20040;-84
2022/01/22 09:51:28;;;;;;;41.40;21.38;;;;;;;5.00;100.00;103503.69;5035489;28;20029;-84
2022/01/22 09:53:53;;;;;;;39.67;21.13;;;;;;;5.01;100.00;103508.94;5033354;28;20037;-83
2022/01/22 09:56:21;;;;;;;37.13;20.33;;;;;;;5.01;100.00;103510.63;5033240;28;20021;-85
2022/01/22 09:58:48;;;;;;;38.95;21.65;;;;;;;5.00;100.00;103507.16;5039278;28;20037;-84
2022/01/22 10:01:28;;;;;;;41.50;21.50;;;;;;;5.03;100.00;103498.63;5050755;28;20040;-84
2022/01/22 10:04:03;;;;;;;43.25;22.42;;;;;;;5.03;100.00;103506.41;5032149;28;20405;-84
2022/01/22 10:06:31;;;;;;;37.38;21.58;;;;;;;5.06;100.00;103510.00;5051186;28;20029;-85
2022/01/22 10:09:09;;;;;;;38.28;19.90;;;;;;;5.11;100.00;103500.72;5052463;28;20048;-85
2022/01/22 10:11:35;;;;;;;35.00;20.45;;;;;;;5.13;100.00;103498.19;5050857;28;20031;-84
2022/01/22 10:14:01;;;;;;;39.25;21.38;;;;;;;5.20;100.00;103507.09;5050367;28;20020;-83
2022/01/22 10:16:30;;;;;;;39.88;20.67;;;;;;;5.21;100.00;103506.28;5039577;28;20040;-84
2022/01/22 10:19:21;;;;;;;36.45;18.17;;;;;;;5.23;100.00;103505.53;5048504;28;20495;-85
2022/01/22 10:21:48;;;;;;;35.60;19.33;;;;;;;5.26;100.00;103509.94;5040235;28;20025;-85
2022/01/22 10:24:47;;;;;;;31.25;18.88;;;;;;;5.25;100.00;103509.06;5054638;28;20143;-85
2022/01/22 10:27:24;;;;;;;35.92;19.08;;;;;;;5.27;100.00;103504.84;5036704;28;20043;-86
2022/01/22 10:29:53;;;;;;;33.88;18.58;;;;;;;5.28;100.00;103496.25;5046560;28;20053;-86
2022/01/22 10:32:22;;;;;;;40.58;19.27;;;;;;;5.34;100.00;103501.69;5051162;28;20083;-85
2022/01/22 10:34:47;;;;;;;37.83;20.40;;;;;;;5.37;100.00;103506.97;5033248;28;20037;-86
2022/01/22 10:37:13;;;;;;;38.05;19.80;;;;;;;5.38;100.00;103493.22;5041635;28;20432;-86
2022/01/22 10:39:38;;;;;;;32.22;18.92;;;;;;;5.35;100.00;103494.78;5041397;28;20067;-85
2022/01/22 10:42:18;;;;;;;38.10;20.13;;;;;;;5.40;100.00;103496.75;5039505;28;20503;-86
2022/01/22 10:44:48;;;;;;;32.55;19.25;;;;;;;5.40;100.00;103498.47;5044327;28;20064;-85
2022/01/22 10:47:22;;;;;;;34.20;19.73;;;;;;;5.40;100.00;103490.69;5048890;28;20130;-85
2022/01/22 10:49:47;;;;;;;34.92;21.27;;;;;;;5.44;100.00;103494.28;5051735;28;20033;-85
2022/01/22 10:52:12;;;;;;;38.75;21.38;;;;;;;5.46;100.00;103505.56;5045265;28;20363;-85
2022/01/22 10:54:39;;;;;;;38.67;21.60;;;;;;;5.45;100.00;103516.75;5032873;28;20057;-86
2022/01/22 10:57:23;;;;;;;38.88;20.70;;;;;;;5.45;100.00;103507.28;5043313;28;20079;-85
2022/01/22 10:59:50;;;;;;;36.78;21.08;;;;;;;5.43;100.00;103511.53;5038958;28;20129;-87
2022/01/22 11:02:29;;;;;;;39.72;21.92;;;;;;;5.43;100.00;103508.03;5051467;28;20060;-87
2022/01/22 11:04:54;;;;;;;33.75;20.33;;;;;;;5.42;100.00;103520.09;5051042;28;20123;-85
2022/01/22 11:07:21;;;;;;;38.08;20.58;;;;;;;5.40;100.00;103514.88;5041007;28;20112;-84
2022/01/22 11:09:47;;;;;;;40.08;22.02;;;;;;;5.40;100.00;103514.00;5045284;28;20037;-83
2022/01/22 11:12:13;;;;;;;35.53;21.45;;;;;;;5.41;100.00;103505.41;5050770;28;20025;-84
2022/01/22 11:14:40;;;;;;;36.22;21.13;;;;;;;5.38;100.00;103493.22;5050748;28;20021;-83
2022/01/22 11:17:06;;;;;;;40.50;21.63;;;;;;;5.42;100.00;103506.28;5050665;28;20025;-84
2022/01/22 11:19:34;;;;;;;38.30;20.45;;;;;;;5.41;100.00;103500.22;5042125;28;20021;-84
2022/01/22 11:22:08;;;;;;;35.75;20.48;;;;;;;5.38;100.00;103488.03;5045788;28;20037;-83
2022/01/22 11:24:37;;;;;;;35.45;20.80;;;;;;;5.46;100.00;103497.81;5051212;28;20025;-83
2022/01/22 11:27:04;;;;;;;41.63;21.45;;;;;;;5.46;100.00;103477.09;5042491;28;20033;-83
2022/01/22 11:29:37;;;;;;;35.38;21.15;;;;;;;5.46;100.00;103471.94;5039410;28;20055;-83
2022/01/22 11:32:08;;;;;;;43.63;21.50;;;;;;;5.48;100.00;103472.88;5050734;28;20025;-83
2022/01/22 11:34:35;;;;;;;37.65;22.63;;;;;;;5.50;100.00;103479.00;5050172;28;20033;-84
2022/01/22 11:37:25;;;;;;;41.67;22.65;;;;;;;5.55;100.00;103486.13;5038965;28;20017;-84
2022/01/22 11:40:09;;;;;;;44.25;22.42;;;;;;;5.58;100.00;103493.13;5051694;28;20036;-84
2022/01/22 11:42:57;;;;;;;41.72;24.17;;;;;;;5.59;100.00;103494.88;5050229;28;20111;-84
2022/01/22 11:45:35;;;;;;;45.95;23.02;;;;;;;5.61;100.00;103488.06;5039721;28;20416;-83
2022/01/22 11:48:15;;;;;;;42.30;22.85;;;;;;;5.58;100.00;103473.31;5031196;28;20026;-83
2022/01/22 11:50:42;;;;;;;37.88;23.40;;;;;;;5.63;100.00;103482.13;5044897;28;20033;-84
2022/01/22 11:53:27;;;;;;;41.13;23.35;;;;;;;5.63;100.00;103474.38;5049335;28;20384;-84
2022/01/22 11:56:11;;;;;;;35.40;22.58;;;;;;;5.66;100.00;103481.38;5036677;28;20041;-83
2022/01/22 11:59:03;;;;;;;42.45;24.92;;;;;;;5.66;100.00;103478.78;5041956;28;20029;-84
2022/01/22 12:01:45;;;;;;;38.70;22.55;;;;;;;5.70;100.00;103487.56;5042014;28;20029;-85
2022/01/22 12:04:15;;;;;;;40.20;23.65;;;;;;;5.68;100.00;103479.72;5049911;28;20036;-84
2022/01/22 12:07:02;;;;;;;38.38;22.45;;;;;;;5.72;100.00;103473.88;5047322;28;20037;-84
2022/01/22 12:09:33;;;;;;;35.70;21.77;;;;;;;5.75;100.00;103480.84;5043187;28;20036;-85
2022/01/22 12:15:10;;;;;;;39.38;22.60;;;;;;;5.67;100.00;103477.97;5052955;28;20211;-84
2022/01/22 12:17:53;;;;;;;40.35;22.17;;;;;;;5.66;100.00;103477.88;5053940;28;20389;-84
2022/01/22 12:23:19;;;;;;;40.80;22.38;;;;;;;5.57;100.00;103481.03;5043265;28;20516;-85
2022/01/22 12:25:44;;;;;;;47.42;23.65;;;;;;;5.56;100.00;103479.25;5045993;28;20417;-83
2022/01/22 12:28:12;;;;;;;40.53;23.77;;;;;;;5.51;100.00;103479.06;5048102;28;20021;-84
2022/01/22 12:30:47;;;;;;;38.88;22.73;;;;;;;5.49;100.00;103482.41;5037194;28;20295;-86
2022/01/22 12:33:15;;;;;;;39.72;23.17;;;;;;;5.42;100.00;103486.44;5034204;28;20025;-83
2022/01/22 12:35:46;;;;;;;43.47;23.65;;;;;;;5.42;100.00;103495.94;5034779;28;20043;-83
2022/01/22 12:38:18;;;;;;;45.10;23.98;;;;;;;5.37;100.00;103481.09;5043922;28;20033;-83
2022/01/22 12:40:45;;;;;;;42.15;24.42;;;;;;;5.34;100.00;103482.69;5058247;28;20124;-83